createdAt,value
2022-09-21T00:02:09.835Z,72.30
2022-09-21T00:07:15.560Z,72.40
2022-09-21T00:12:20.245Z,72.60
2022-09-21T00:17:24.216Z,72.70
2022-09-21T00:22:30.149Z,72.70
2022-09-21T00:27:34.431Z,73.10
2022-09-21T00:32:40.597Z,73.10
2022-09-21T00:37:45.863Z,73.10
2022-09-21T00:42:51.089Z,73.10
2022-09-21T00:47:55.224Z,73.00
2022-09-21T00:53:01.125Z,73.00
2022-09-21T00:58:10.239Z,73.00
2022-09-21T01:03:15.087Z,72.70
2022-09-21T01:08:21.949Z,72.40
2022-09-21T01:13:41.034Z,72.10
2022-09-21T01:18:53.132Z,71.90
2022-09-21T01:24:44.121Z,71.70
2022-09-21T01:29:53.912Z,71.40
2022-09-21T01:35:05.318Z,71.40
2022-09-21T01:40:18.081Z,71.30
2022-09-21T01:45:32.239Z,71.30
2022-09-21T01:50:43.488Z,71.40
2022-09-21T01:55:52.722Z,71.40
2022-09-21T02:00:59.226Z,71.40
2022-09-21T02:06:04.719Z,71.70
2022-09-21T02:11:11.599Z,71.50
2022-09-21T02:16:36.740Z,71.50
2022-09-21T02:21:55.835Z,71.50
2022-09-21T02:27:07.623Z,71.60
2022-09-21T02:32:24.989Z,71.80
2022-09-21T02:37:38.653Z,71.80
2022-09-21T02:42:46.488Z,71.70
2022-09-21T02:47:57.219Z,71.70
2022-09-21T02:53:03.285Z,71.70
2022-09-21T02:58:11.580Z,71.80
2022-09-21T03:03:23.290Z,72.40
2022-09-21T03:08:26.798Z,72.10
2022-09-21T03:13:30.682Z,72.40
2022-09-21T03:18:36.054Z,72.70
2022-09-21T03:23:39.850Z,72.90
2022-09-21T03:28:43.400Z,73.00
2022-09-21T03:33:48.465Z,72.90
2022-09-21T03:38:52.118Z,72.80
2022-09-21T03:43:55.760Z,72.60
2022-09-21T03:49:01.150Z,72.80
2022-09-21T03:54:05.010Z,72.70
2022-09-21T03:59:13.211Z,72.70
2022-09-21T04:04:19.020Z,72.40
2022-09-21T04:09:22.494Z,72.30
2022-09-21T04:14:26.125Z,72.10
2022-09-21T04:19:31.036Z,72.20
2022-09-21T04:24:34.619Z,72.80
2022-09-21T04:29:39.084Z,72.70
2022-09-21T04:34:43.969Z,72.90
2022-09-21T04:39:47.591Z,72.60
2022-09-21T04:44:51.535Z,73.40
2022-09-21T04:49:56.413Z,72.50
2022-09-21T04:54:59.814Z,72.70
2022-09-21T05:00:04.583Z,72.50
2022-09-21T05:05:10.516Z,72.70
2022-09-21T05:10:14.785Z,72.60
2022-09-21T05:15:18.682Z,72.70
2022-09-21T05:20:23.932Z,72.70
2022-09-21T05:25:27.486Z,72.10
2022-09-21T05:30:32.568Z,72.60
2022-09-21T05:35:44.253Z,72.60
2022-09-21T05:40:50.303Z,72.60
2022-09-21T05:46:03.172Z,73.10
2022-09-21T05:51:24.638Z,72.80
2022-09-21T05:56:47.049Z,72.80
2022-09-21T06:02:05.904Z,72.60
2022-09-21T06:07:10.808Z,72.70
2022-09-21T06:12:14.424Z,72.50
2022-09-21T06:17:18.003Z,72.50
2022-09-21T06:22:23.217Z,72.30
2022-09-21T06:27:26.891Z,73.00
2022-09-21T06:32:30.439Z,72.70
2022-09-21T06:37:35.464Z,72.70
2022-09-21T06:42:38.956Z,72.50
2022-09-21T06:47:48.460Z,72.70
2022-09-21T06:52:53.400Z,73.00
2022-09-21T06:58:02.978Z,72.80
2022-09-21T07:03:06.541Z,72.80
2022-09-21T07:13:35.660Z,72.80
2022-09-21T07:18:43.756Z,72.80
2022-09-21T07:23:49.174Z,73.00
2022-09-21T07:28:52.702Z,72.80
2022-09-21T07:33:59.419Z,72.20
2022-09-21T07:39:05.264Z,71.60
2022-09-21T07:44:08.810Z,71.60
2022-09-21T07:49:13.585Z,71.50
2022-09-21T07:54:18.507Z,72.30
2022-09-21T07:59:22.132Z,71.80
2022-09-21T08:04:25.746Z,70.60
2022-09-21T08:09:30.883Z,70.20
2022-09-21T08:14:34.869Z,70.40
2022-09-21T08:19:38.701Z,70.10
2022-09-21T08:24:44.521Z,69.70
2022-09-21T08:29:48.455Z,69.40
2022-09-21T08:34:52.376Z,69.20
2022-09-21T08:39:57.327Z,69.10
2022-09-21T08:45:10.270Z,68.90
2022-09-21T08:50:37.306Z,68.80
2022-09-21T08:55:42.301Z,68.60
2022-09-21T09:00:45.875Z,69.30
2022-09-21T09:05:56.578Z,71.10
2022-09-21T09:11:21.383Z,72.20
2022-09-21T09:16:36.376Z,72.70
2022-09-21T09:21:43.017Z,73.70
2022-09-21T09:26:55.411Z,74.40
2022-09-21T09:32:00.952Z,74.40
2022-09-21T09:37:14.879Z,76.60
2022-09-21T09:42:55.314Z,77.30
2022-09-21T09:48:27.556Z,77.30
2022-09-21T09:53:32.192Z,78.10
2022-09-21T09:58:46.487Z,75.20
2022-09-21T10:04:08.796Z,75.60
2022-09-21T10:09:28.171Z,76.20
2022-09-21T10:14:36.741Z,75.70
2022-09-21T10:19:40.478Z,75.90
2022-09-21T10:24:52.026Z,76.00
2022-09-21T10:29:57.525Z,76.40
2022-09-21T10:35:21.205Z,74.90
2022-09-21T10:40:30.967Z,75.20
2022-09-21T10:45:38.173Z,75.00
2022-09-21T10:50:45.182Z,75.10
2022-09-21T10:56:14.933Z,75.50
2022-09-21T11:01:25.356Z,73.40
2022-09-21T11:06:38.175Z,72.00
2022-09-21T11:11:54.974Z,71.80
2022-09-21T11:17:14.031Z,71.00
2022-09-21T11:22:36.972Z,70.40
2022-09-21T11:27:45.727Z,71.00
2022-09-21T11:33:23.408Z,69.50
2022-09-21T11:38:49.556Z,69.10
2022-09-21T11:44:17.754Z,68.80
2022-09-21T11:50:26.287Z,68.40
2022-09-21T11:56:27.194Z,68.40
2022-09-21T12:01:54.636Z,68.10
2022-09-21T12:07:15.296Z,67.70
2022-09-21T12:12:25.008Z,67.60
2022-09-21T12:17:46.544Z,67.30
2022-09-21T12:22:59.072Z,67.10
2022-09-21T12:28:11.801Z,67.30
2022-09-21T12:33:26.218Z,68.90
2022-09-21T12:38:36.478Z,69.10
2022-09-21T12:43:46.172Z,69.20
2022-09-21T12:48:50.042Z,69.40
2022-09-21T12:54:00.682Z,69.30
2022-09-21T12:59:27.414Z,69.40
2022-09-21T13:04:45.612Z,69.60
2022-09-21T13:09:52.408Z,69.50
2022-09-21T13:15:06.807Z,69.70
2022-09-21T13:20:20.936Z,69.70
2022-09-21T13:25:29.839Z,69.80
2022-09-21T13:30:45.601Z,70.10
2022-09-21T13:36:12.820Z,70.00
2022-09-21T13:41:51.841Z,70.20
2022-09-21T13:46:58.388Z,70.10
2022-09-21T13:52:07.397Z,70.00
2022-09-21T13:57:25.090Z,70.10
2022-09-21T14:02:35.170Z,70.20
2022-09-21T14:12:52.381Z,69.90
2022-09-21T14:18:48.105Z,70.50
2022-09-21T14:24:22.256Z,69.90
2022-09-21T14:29:38.950Z,69.90
2022-09-21T14:34:47.053Z,68.40
2022-09-21T14:39:51.556Z,67.10
2022-09-21T14:45:02.191Z,67.30
2022-09-21T14:50:33.029Z,67.20
2022-09-21T14:56:10.960Z,67.10
2022-09-21T15:01:38.275Z,65.10
2022-09-21T15:07:07.772Z,64.80
2022-09-21T15:12:21.262Z,65.50
2022-09-21T15:17:30.027Z,66.00
2022-09-21T15:22:33.705Z,66.40
2022-09-21T15:27:38.093Z,66.70
2022-09-21T15:32:46.636Z,66.70
2022-09-21T15:37:52.253Z,67.00
2022-09-21T15:43:06.577Z,67.00
2022-09-21T15:48:13.436Z,67.20
2022-09-21T15:53:24.993Z,67.40
2022-09-21T15:58:37.231Z,67.40
2022-09-21T16:03:43.888Z,65.80
2022-09-21T16:08:47.449Z,60.40
2022-09-21T16:14:18.525Z,59.90
2022-09-21T16:19:43.213Z,61.50
2022-09-21T16:24:52.005Z,62.20
2022-09-21T16:29:58.331Z,63.80
2022-09-21T16:35:29.371Z,63.40
2022-09-21T16:40:32.969Z,64.50
2022-09-21T16:45:36.749Z,64.10
2022-09-21T16:50:43.107Z,64.10
2022-09-21T16:55:48.309Z,64.60
2022-09-21T17:00:56.343Z,65.20
2022-09-21T17:06:01.346Z,66.00
2022-09-21T17:11:05.203Z,66.60
2022-09-21T17:16:10.575Z,66.30
2022-09-21T17:21:16.596Z,65.00
2022-09-21T17:26:21.262Z,64.50
2022-09-21T17:31:28.096Z,65.00
2022-09-21T17:36:33.294Z,65.00
2022-09-21T17:41:51.389Z,65.30
2022-09-21T17:47:02.135Z,65.70
2022-09-21T17:52:34.577Z,64.80
2022-09-21T17:57:59.354Z,64.00
2022-09-21T18:03:04.798Z,63.70
2022-09-21T18:08:11.697Z,63.60
2022-09-21T18:13:33.901Z,63.70
2022-09-21T18:18:50.024Z,63.40
2022-09-21T18:24:17.549Z,63.30
2022-09-21T18:29:40.776Z,63.30
2022-09-21T18:35:27.583Z,63.00
2022-09-21T18:40:42.029Z,63.00
2022-09-21T18:45:53.698Z,62.70
2022-09-21T18:51:11.945Z,62.80
2022-09-21T18:56:18.533Z,62.90
2022-09-21T19:01:23.910Z,63.20
2022-09-21T19:06:45.497Z,63.30
2022-09-21T19:11:59.935Z,63.50
2022-09-21T19:17:23.861Z,63.60
2022-09-21T19:22:38.415Z,63.90
2022-09-21T19:27:51.699Z,64.90
2022-09-21T19:32:58.323Z,64.30
2022-09-21T19:38:04.642Z,64.50
2022-09-21T19:43:30.366Z,64.90
2022-09-21T19:48:44.146Z,65.20
2022-09-21T19:54:14.826Z,65.60
2022-09-21T19:59:38.424Z,65.90
2022-09-21T20:04:51.767Z,66.10
2022-09-21T20:10:38.004Z,66.50
2022-09-21T20:15:51.173Z,66.70
2022-09-21T20:20:57.336Z,67.10
2022-09-21T20:26:08.485Z,67.50
2022-09-21T20:31:13.678Z,67.60
2022-09-21T20:36:17.378Z,67.80
2022-09-21T20:41:24.509Z,67.60
2022-09-21T20:46:29.582Z,67.80
2022-09-21T20:51:34.445Z,67.80
2022-09-21T20:56:37.938Z,68.00
2022-09-21T21:01:42.973Z,68.10
2022-09-21T21:06:46.487Z,68.30
2022-09-21T21:11:50.012Z,68.60
2022-09-21T21:16:55.053Z,68.80
2022-09-21T21:21:58.680Z,69.00
2022-09-21T21:27:03.306Z,69.20
2022-09-21T21:32:08.738Z,69.50
2022-09-21T21:37:14.215Z,69.70
2022-09-21T21:42:19.095Z,70.10
2022-09-21T21:47:40.916Z,70.50
2022-09-21T21:52:45.480Z,70.40
2022-09-21T21:57:49.038Z,70.80
2022-09-21T22:02:56.887Z,71.00
2022-09-21T22:08:00.339Z,71.10
2022-09-21T22:13:04.799Z,71.30
2022-09-21T22:18:09.897Z,71.40
2022-09-21T22:23:14.429Z,71.40
2022-09-21T22:28:18.047Z,71.40
2022-09-21T22:33:23.141Z,71.40
2022-09-21T22:38:29.785Z,71.50
2022-09-21T22:43:34.251Z,71.60
2022-09-21T22:48:39.665Z,71.70
2022-09-21T22:53:44.222Z,71.70
2022-09-21T22:58:50.772Z,71.60
2022-09-21T23:03:59.135Z,72.10
2022-09-21T23:09:06.906Z,72.10
2022-09-21T23:14:12.944Z,71.90
2022-09-21T23:19:17.933Z,71.80
2022-09-21T23:24:22.639Z,71.90
2022-09-21T23:29:26.072Z,71.90
2022-09-21T23:34:30.993Z,72.00
2022-09-21T23:39:34.572Z,71.90
2022-09-21T23:44:38.130Z,72.00
2022-09-21T23:49:43.223Z,72.00
2022-09-21T23:54:46.944Z,72.10
2022-09-21T23:59:52.722Z,72.20
